Time;durP1;ratioP1;P1;durP2;ratioP2;P2;SDS_P1;SDS_P2;PMS_P1;PMS_P2;Temp;Humidity;BMP_temperature;BMP_pressure;BME280_temperature;BME280_humidity;BME280_pressure;Samples;Min_cycle;Max_cycle;Signal;HPM_P1;HPM_P2
2021/09/18 00:01:56;;;;;;;10.98;5.80;;;;;;;17.24;75.58;99388.38;1749800;82;20936;-64
2021/09/18 00:04:23;;;;;;;7.33;5.72;;;;;;;17.24;75.66;99392.38;1749742;82;21004;-64
2021/09/18 00:06:50;;;;;;;7.55;5.50;;;;;;;17.24;75.75;99391.05;1750060;82;20945;-64
2021/09/18 00:09:16;;;;;;;12.23;6.15;;;;;;;17.25;75.87;99387.36;1749726;82;21808;-64
2021/09/18 00:11:44;;;;;;;8.35;5.72;;;;;;;17.26;75.92;99388.18;1750651;80;20984;-64
2021/09/18 00:14:11;;;;;;;9.68;6.00;;;;;;;17.27;76.00;99387.98;1778450;80;20944;-64
2021/09/18 00:16:37;;;;;;;8.50;5.95;;;;;;;17.28;76.16;99388.84;1780684;80;20976;-64
2021/09/18 00:19:05;;;;;;;10.38;6.08;;;;;;;17.29;76.29;99391.83;1780674;80;21040;-63
2021/09/18 00:21:35;;;;;;;8.20;6.20;;;;;;;17.29;76.47;99383.83;1780578;80;20995;-64
2021/09/18 00:24:04;;;;;;;9.65;6.12;;;;;;;17.31;76.52;99381.78;1761920;80;21474;-64
2021/09/18 00:26:32;;;;;;;10.55;6.30;;;;;;;17.34;76.56;99379.55;1780641;80;20933;-63
2021/09/18 00:29:01;;;;;;;7.97;6.08;;;;;;;17.36;76.71;99373.52;1767867;80;21426;-64
2021/09/18 00:31:29;;;;;;;10.05;6.33;;;;;;;17.39;76.80;99379.83;1749951;80;20940;-64
2021/09/18 00:33:58;;;;;;;11.20;6.37;;;;;;;17.42;76.86;99373.27;1749717;82;20936;-64
2021/09/18 00:36:26;;;;;;;8.18;6.30;;;;;;;17.44;76.88;99369.90;1749728;82;21064;-64
2021/09/18 00:38:54;;;;;;;8.48;6.60;;;;;;;17.48;76.93;99370.36;1749681;82;21000;-64
2021/09/18 00:41:20;;;;;;;9.70;6.55;;;;;;;17.50;77.00;99370.99;1749669;82;20962;-64
2021/09/18 00:43:53;;;;;;;12.58;6.60;;;;;;;17.52;76.99;99372.95;1756211;80;20956;-64
2021/09/18 00:46:20;;;;;;;9.03;6.70;;;;;;;17.55;77.11;99367.23;1751032;80;22422;-63
2021/09/18 00:48:48;;;;;;;10.10;6.42;;;;;;;17.57;77.11;99371.89;1720649;82;20941;-63
2021/09/18 00:51:17;;;;;;;9.43;6.08;;;;;;;17.59;77.18;99367.17;1751787;80;21684;-63
2021/09/18 00:53:45;;;;;;;9.13;6.50;;;;;;;17.59;77.26;99349.31;1745038;80;21032;-63
2021/09/18 00:56:12;;;;;;;9.48;7.10;;;;;;;17.61;77.35;99360.62;1744394;81;20945;-63
2021/09/18 00:58:40;;;;;;;8.85;6.67;;;;;;;17.62;77.43;99353.44;1744367;81;21098;-63
2021/09/18 01:01:08;;;;;;;8.10;6.58;;;;;;;17.64;77.56;99350.88;1744507;82;21401;-63
2021/09/18 01:03:34;;;;;;;9.70;6.45;;;;;;;17.64;77.67;99346.88;1764157;80;20992;-63
2021/09/18 01:06:01;;;;;;;9.20;6.72;;;;;;;17.65;77.83;99341.02;1775144;80;20944;-63
2021/09/18 01:08:28;;;;;;;8.70;6.70;;;;;;;17.67;77.98;99337.67;1775466;80;20933;-63
2021/09/18 01:10:56;;;;;;;7.20;6.22;;;;;;;17.67;78.09;99335.83;1774212;80;21004;-63
2021/09/18 01:13:22;;;;;;;8.08;6.80;;;;;;;17.69;78.21;99337.83;1752109;80;21463;-63
2021/09/18 01:15:50;;;;;;;10.23;6.67;;;;;;;17.68;78.38;99337.98;1744453;82;20976;-62
2021/09/18 01:18:17;;;;;;;7.62;6.30;;;;;;;17.69;78.48;99335.63;1744519;82;20937;-63
2021/09/18 01:20:50;;;;;;;10.75;7.35;;;;;;;17.69;78.66;99332.96;1745562;80;20996;-63
2021/09/18 01:23:22;;;;;;;10.80;6.95;;;;;;;17.68;78.78;99326.80;1743661;82;22460;-63
2021/09/18 01:25:48;;;;;;;8.53;6.95;;;;;;;17.69;78.90;99328.47;1744508;82;21023;-63
2021/09/18 01:28:17;;;;;;;9.48;6.87;;;;;;;17.70;78.99;99326.62;1744431;81;20929;-63
2021/09/18 01:30:45;;;;;;;8.05;6.90;;;;;;;17.71;79.10;99325.61;1744311;82;20987;-63
2021/09/18 01:33:12;;;;;;;8.05;6.53;;;;;;;17.70;79.22;99315.95;1744499;82;20972;-63
2021/09/18 01:35:40;;;;;;;8.55;6.80;;;;;;;17.69;79.33;99315.13;1723982;82;21427;-63
2021/09/18 01:38:07;;;;;;;9.63;6.80;;;;;;;17.70;79.39;99316.77;1745231;80;20952;-63
2021/09/18 01:40:39;;;;;;;8.98;7.20;;;;;;;17.70;79.53;99320.78;1746382;80;20950;-63
2021/09/18 01:43:07;;;;;;;8.50;7.15;;;;;;;17.72;79.63;99317.91;1770570;79;21381;-63
2021/09/18 01:45:36;;;;;;;10.98;7.87;;;;;;;17.71;79.72;99310.41;1775297;80;21479;-63
2021/09/18 01:48:07;;;;;;;9.98;7.53;;;;;;;17.73;79.81;99307.54;1775040;80;21782;-63
2021/09/18 01:50:46;;;;;;;10.05;8.10;;;;;;;17.74;79.84;99306.00;1779623;79;20985;-64
2021/09/18 01:53:17;;;;;;;10.48;8.23;;;;;;;17.76;79.83;99303.64;1772393;80;21440;-63
2021/09/18 01:55:44;;;;;;;12.20;8.90;;;;;;;17.77;79.81;99310.67;1735655;80;21046;-63
2021/09/18 01:58:10;;;;;;;9.83;7.60;;;;;;;17.77;79.77;99306.66;1689102;82;21474;-63
2021/09/18 02:00:47;;;;;;;12.95;8.55;;;;;;;17.78;79.74;99300.30;1713201;82;20921;-63
2021/09/18 02:03:14;;;;;;;11.80;8.48;;;;;;;17.77;79.69;99301.31;1732721;82;21019;-63
2021/09/18 02:05:40;;;;;;;11.15;8.15;;;;;;;17.76;79.67;99295.63;1733565;82;20967;-63
2021/09/18 02:08:07;;;;;;;10.38;8.30;;;;;;;17.76;79.61;99299.16;1733620;82;20968;-63
2021/09/18 02:10:33;;;;;;;12.15;8.28;;;;;;;17.76;79.56;99284.95;1722589;80;21517;-63
2021/09/18 02:13:04;;;;;;;11.73;8.73;;;;;;;17.76;79.49;99280.47;1774996;80;21018;-63
2021/09/18 02:15:30;;;;;;;10.43;8.98;;;;;;;17.74;79.35;99280.63;1775255;80;20929;-64
2021/09/18 02:17:58;;;;;;;10.00;8.08;;;;;;;17.75;79.22;99280.12;1775541;80;20989;-63
2021/09/18 02:20:28;;;;;;;10.75;8.75;;;;;;;17.76;79.11;99272.93;1775375;80;20985;-63
2021/09/18 02:22:56;;;;;;;11.95;8.38;;;;;;;17.76;79.01;99275.13;1775220;80;20988;-63
2021/09/18 02:25:25;;;;;;;13.83;8.73;;;;;;;17.76;78.95;99277.80;1775382;80;22640;-63
2021/09/18 02:27:53;;;;;;;10.88;8.43;;;;;;;17.73;78.80;99266.14;1764316;80;21075;-63
2021/09/18 02:30:25;;;;;;;11.80;8.43;;;;;;;17.73;78.69;99257.62;1744475;82;20948;-64
2021/09/18 02:32:52;;;;;;;9.83;8.07;;;;;;;17.72;78.60;99262.65;1744847;82;21351;-63
2021/09/18 02:35:20;;;;;;;11.35;8.03;;;;;;;17.72;78.50;99261.83;1744574;82;21546;-63
2021/09/18 02:37:48;;;;;;;11.43;8.65;;;;;;;17.70;78.40;99256.69;1744595;82;21851;-63
2021/09/18 02:40:16;;;;;;;12.20;8.00;;;;;;;17.69;78.34;99253.70;1753353;80;21016;-64
2021/09/18 02:42:47;;;;;;;11.03;8.15;;;;;;;17.70;78.26;99255.34;1759601;80;20987;-64
2021/09/18 02:45:14;;;;;;;12.68;8.18;;;;;;;17.70;78.16;99254.52;1754565;80;20988;-63
2021/09/18 02:47:42;;;;;;;10.90;8.48;;;;;;;17.69;77.98;99248.36;1744592;82;21068;-63
2021/09/18 02:50:11;;;;;;;10.35;8.53;;;;;;;17.70;77.87;99259.35;1744531;82;21832;-65
2021/09/18 02:52:39;;;;;;;10.68;7.92;;;;;;;17.71;77.78;99261.52;1729352;81;20916;-63
2021/09/18 02:55:08;;;;;;;11.33;8.13;;;;;;;17.70;77.71;99260.69;1764081;80;20995;-63
2021/09/18 02:57:36;;;;;;;9.23;8.20;;;;;;;17.69;77.69;99259.05;1757812;81;20965;-63
2021/09/18 03:00:06;;;;;;;9.60;8.20;;;;;;;17.68;77.62;99256.03;1757831;81;20980;-63
2021/09/18 03:02:33;;;;;;;11.60;8.20;;;;;;;17.67;77.53;99261.06;1758932;80;21881;-63
2021/09/18 03:05:00;;;;;;;11.95;8.05;;;;;;;17.67;77.50;99261.06;1757721;81;20929;-63
2021/09/18 03:07:27;;;;;;;9.35;7.70;;;;;;;17.66;77.41;99258.08;1757880;81;20967;-63
2021/09/18 03:09:53;;;;;;;12.95;8.35;;;;;;;17.66;77.28;99262.56;1761614;80;20995;-64
2021/09/18 03:12:20;;;;;;;9.75;8.60;;;;;;;17.67;77.20;99256.23;1789116;80;20984;-63
2021/09/18 03:14:48;;;;;;;12.03;8.43;;;;;;;17.66;77.14;99260.74;1788930;80;20928;-63
2021/09/18 03:17:16;;;;;;;10.15;8.15;;;;;;;17.67;76.97;99261.06;1788930;80;20972;-63
2021/09/18 03:19:44;;;;;;;9.63;8.63;;;;;;;17.67;76.78;99255.72;1769083;80;20999;-63
2021/09/18 03:22:12;;;;;;;10.88;8.50;;;;;;;17.65;76.59;99252.39;1758444;80;21031;-64
2021/09/18 03:24:40;;;;;;;8.43;7.62;;;;;;;17.65;76.56;99251.56;1775988;80;21514;-63
2021/09/18 03:27:09;;;;;;;11.28;8.70;;;;;;;17.64;76.49;99253.41;1757825;81;20936;-63
2021/09/18 03:29:37;;;;;;;9.20;8.30;;;;;;;17.62;76.39;99246.63;1757796;81;20936;-63
2021/09/18 03:32:05;;;;;;;10.80;8.18;;;;;;;17.61;76.38;99252.47;1758209;81;20997;-63
2021/09/18 03:34:33;;;;;;;9.25;7.97;;;;;;;17.61;76.36;99246.31;1757789;81;21031;-63
2021/09/18 03:36:59;;;;;;;10.82;8.98;;;;;;;17.61;76.37;99241.80;1783389;80;20948;-63
2021/09/18 03:39:25;;;;;;;8.93;7.87;;;;;;;17.61;76.35;99248.98;1788099;80;21791;-64
2021/09/18 03:41:52;;;;;;;11.05;9.15;;;;;;;17.62;76.35;99250.62;1758064;81;21376;-64
2021/09/18 03:44:18;;;;;;;10.75;9.23;;;;;;;17.62;76.34;99251.45;1757916;81;20991;-63
2021/09/18 03:46:45;;;;;;;10.45;8.90;;;;;;;17.61;76.37;99252.47;1758021;81;20984;-63
2021/09/18 03:49:11;;;;;;;10.53;8.80;;;;;;;17.61;76.48;99251.14;1758010;81;21636;-63
2021/09/18 03:51:39;;;;;;;10.93;9.48;;;;;;;17.58;76.56;99250.20;1754692;80;21058;-63
2021/09/18 03:54:06;;;;;;;12.18;8.93;;;;;;;17.58;76.61;99255.55;1751974;80;21000;-63
2021/09/18 03:56:34;;;;;;;11.03;8.90;;;;;;;17.57;76.72;99254.41;1759984;81;21467;-63
2021/09/18 03:59:01;;;;;;;9.78;8.78;;;;;;;17.56;76.79;99255.40;1759888;81;20999;-63
2021/09/18 04:01:28;;;;;;;11.53;8.88;;;;;;;17.56;76.80;99250.06;1760025;81;20995;-63
2021/09/18 04:03:59;;;;;;;11.50;9.50;;;;;;;17.56;76.87;99250.88;1759890;81;21019;-63
2021/09/18 04:06:27;;;;;;;10.58;8.68;;;;;;;17.58;76.97;99253.39;1759948;81;20936;-63
2021/09/18 04:08:54;;;;;;;11.55;9.43;;;;;;;17.59;77.00;99253.70;1763096;80;21071;-64
2021/09/18 04:11:21;;;;;;;9.85;8.83;;;;;;;17.60;77.06;99246.82;1746245;80;20987;-64
2021/09/18 04:13:51;;;;;;;10.60;9.50;;;;;;;17.63;77.18;99248.27;1749188;80;21431;-63
2021/09/18 04:16:20;;;;;;;10.98;9.50;;;;;;;17.64;77.26;99245.91;1744588;82;21927;-64
2021/09/18 04:18:48;;;;;;;10.25;9.25;;;;;;;17.65;77.34;99246.23;1744344;82;21083;-64
2021/09/18 04:21:17;;;;;;;12.10;9.55;;;;;;;17.66;77.39;99246.53;1744513;82;21487;-64
2021/09/18 04:23:44;;;;;;;10.60;9.35;;;;;;;17.68;77.46;99242.67;1750093;80;20993;-62
2021/09/18 04:26:12;;;;;;;11.97;9.88;;;;;;;17.70;77.51;99245.17;1745427;80;21008;-64
2021/09/18 04:28:40;;;;;;;10.85;9.73;;;;;;;17.71;77.54;99240.15;1744387;82;20980;-62
2021/09/18 04:31:07;;;;;;;10.25;8.98;;;;;;;17.73;77.59;99236.77;1744300;82;20940;-62
2021/09/18 04:33:34;;;;;;;10.80;9.38;;;;;;;17.74;77.65;99245.09;1745759;80;20984;-63
2021/09/18 04:36:02;;;;;;;10.98;9.50;;;;;;;17.77;77.68;99241.23;1755780;80;20973;-62
2021/09/18 04:38:28;;;;;;;13.10;10.00;;;;;;;17.79;77.74;99235.99;1771067;80;20968;-64
2021/09/18 04:40:57;;;;;;;16.42;10.35;;;;;;;17.82;77.77;99235.59;1766607;80;21797;-64
2021/09/18 04:43:25;;;;;;;11.88;9.75;;;;;;;17.86;77.80;99232.04;1770142;80;21016;-63
2021/09/18 04:45:52;;;;;;;11.97;9.88;;;;;;;17.89;77.76;99232.45;1744426;82;20948;-63
2021/09/18 04:48:18;;;;;;;12.37;9.88;;;;;;;17.93;77.75;99232.88;1744709;82;21373;-63
2021/09/18 04:50:45;;;;;;;11.70;9.88;;;;;;;17.96;77.73;99227.16;1744460;82;21000;-64
2021/09/18 04:53:13;;;;;;;13.22;10.30;;;;;;;17.98;77.72;99235.29;1774161;80;21825;-65
2021/09/18 04:55:39;;;;;;;14.20;10.35;;;;;;;18.02;77.68;99224.50;1783458;80;21399;-64
2021/09/18 04:58:06;;;;;;;14.47;10.32;;;;;;;18.06;77.63;99224.13;1783307;80;21439;-64
2021/09/18 05:00:34;;;;;;;13.22;10.30;;;;;;;18.09;77.57;99225.06;1776223;80;21495;-64
2021/09/18 05:03:00;;;;;;;11.68;9.95;;;;;;;18.12;77.50;99224.14;1752488;82;20948;-64
2021/09/18 05:05:26;;;;;;;13.08;9.78;;;;;;;18.16;77.45;99220.07;1752528;82;21744;-64
2021/09/18 05:07:54;;;;;;;14.40;9.85;;;;;;;18.20;77.39;99220.48;1759686;80;20992;-65
2021/09/18 05:10:20;;;;;;;14.28;10.23;;;;;;;18.25;77.26;99220.73;1760652;80;20975;-65
2021/09/18 05:12:47;;;;;;;11.05;9.88;;;;;;;18.29;77.19;99225.45;1783237;80;21494;-65
2021/09/18 05:15:13;;;;;;;12.90;10.20;;;;;;;18.34;77.17;99209.35;1783617;80;21032;-65
2021/09/18 05:17:41;;;;;;;13.03;10.10;;;;;;;18.40;77.05;99223.23;1774818;80;21833;-65
2021/09/18 05:20:11;;;;;;;12.30;10.08;;;;;;;18.45;76.91;99214.11;1729301;82;20964;-65
2021/09/18 05:22:37;;;;;;;14.18;10.50;;;;;;;18.51;76.84;99214.63;1764519;80;21450;-67
2021/09/18 05:25:05;;;;;;;11.78;9.83;;;;;;;18.57;76.69;99207.97;1755417;80;20999;-64
2021/09/18 05:27:32;;;;;;;11.50;9.93;;;;;;;18.62;76.49;99215.37;1771545;80;20968;-63
2021/09/18 05:30:00;;;;;;;15.63;9.48;;;;;;;18.67;76.39;99209.47;1764226;80;21781;-64
2021/09/18 05:32:26;;;;;;;15.15;9.98;;;;;;;18.69;76.27;99208.23;1759390;80;22098;-64
2021/09/18 05:34:54;;;;;;;14.25;10.15;;;;;;;18.72;76.10;99211.86;1757001;80;21004;-65
2021/09/18 05:37:21;;;;;;;12.07;9.18;;;;;;;18.76;75.97;99213.61;1774838;80;21000;-65
2021/09/18 05:39:53;;;;;;;13.10;9.70;;;;;;;18.78;75.87;99219.05;1771457;80;21352;-64
2021/09/18 05:42:21;;;;;;;;;;;;;;;18.80;75.75;99221.01;1765693;80;20933;-65
2021/09/18 05:44:48;;;;;;;12.98;10.18;;;;;;;18.84;75.78;99210.74;1764345;80;20156;-64
2021/09/18 05:47:15;;;;;;;14.85;10.72;;;;;;;18.85;75.60;99215.89;1782189;80;21410;-63
2021/09/18 05:49:41;;;;;;;12.90;10.38;;;;;;;18.87;75.49;99214.34;1782649;80;21004;-64
2021/09/18 05:52:09;;;;;;;11.75;9.35;;;;;;;18.90;75.39;99217.11;1742578;82;21115;-63
2021/09/18 05:54:35;;;;;;;11.73;9.93;;;;;;;18.93;75.33;99227.43;1718395;83;21570;-66
2021/09/18 05:57:02;;;;;;;11.30;9.80;;;;;;;18.96;75.26;99220.33;1696840;83;20941;-65
2021/09/18 05:59:29;;;;;;;11.65;10.45;;;;;;;18.98;75.06;99219.60;1718370;83;21070;-65
2021/09/18 06:01:57;;;;;;;13.08;10.40;;;;;;;19.00;75.00;99217.53;1745640;81;21008;-65
2021/09/18 06:04:25;;;;;;;13.95;10.65;;;;;;;19.00;74.95;99219.70;1722499;83;21435;-64
2021/09/18 06:06:51;;;;;;;15.35;11.00;;;;;;;19.01;74.86;99221.86;1731286;82;21798;-64
2021/09/18 06:09:18;;;;;;;13.88;10.53;;;;;;;19.01;74.74;99225.88;1719012;82;21063;-64
2021/09/18 06:11:44;;;;;;;12.25;10.90;;;;;;;19.02;74.74;99227.55;1716958;83;21535;-64
2021/09/18 06:14:12;;;;;;;15.63;11.10;;;;;;;19.03;74.73;99221.16;1701848;83;21016;-64
2021/09/18 06:16:41;;;;;;;14.33;11.48;;;;;;;19.04;74.62;99222.30;1715210;83;20977;-65
2021/09/18 06:19:07;;;;;;;12.63;10.80;;;;;;;19.06;74.66;99222.91;1701959;84;21783;-64
2021/09/18 06:21:34;;;;;;;16.75;11.15;;;;;;;19.09;74.57;99221.66;1727385;83;21009;-66
2021/09/18 06:24:04;;;;;;;14.07;11.15;;;;;;;19.10;74.51;99229.48;1731169;82;20954;-65
2021/09/18 06:26:31;;;;;;;13.55;11.43;;;;;;;19.11;74.49;99231.16;1721471;82;21028;-64
2021/09/18 06:28:57;;;;;;;15.40;11.00;;;;;;;19.14;74.51;99228.06;1702392;83;21401;-67
2021/09/18 06:31:24;;;;;;;14.98;11.12;;;;;;;19.19;74.44;99225.27;1729007;83;21860;-63
2021/09/18 06:33:51;;;;;;;10.63;9.50;;;;;;;19.21;74.47;99221.39;1731004;83;20949;-64
2021/09/18 06:36:18;;;;;;;16.20;11.30;;;;;;;19.27;74.40;99227.75;1710369;83;21036;-64
2021/09/18 06:38:44;;;;;;;12.58;11.03;;;;;;;19.31;74.33;99227.16;1713322;83;21077;-63
2021/09/18 06:41:11;;;;;;;14.15;11.20;;;;;;;19.33;74.28;99226.42;1711616;83;20969;-65
2021/09/18 06:43:38;;;;;;;16.60;11.30;;;;;;;19.36;74.24;99219.31;1712250;83;21835;-64
2021/09/18 06:46:05;;;;;;;14.60;11.75;;;;;;;19.40;74.21;99227.25;1707051;83;21547;-65
2021/09/18 06:48:32;;;;;;;14.73;11.60;;;;;;;19.41;74.15;99222.20;1729927;82;20896;-65
2021/09/18 06:50:58;;;;;;;15.20;11.30;;;;;;;19.43;74.17;99224.67;1705285;83;20965;-64
2021/09/18 06:53:26;;;;;;;15.95;11.88;;;;;;;19.47;74.08;99218.38;1709677;83;21449;-65
2021/09/18 06:55:53;;;;;;;14.53;11.60;;;;;;;19.51;74.08;99219.62;1707759;83;21838;-65
2021/09/18 06:58:21;;;;;;;14.28;11.60;;;;;;;19.54;74.09;99221.36;1710272;83;20948;-64
2021/09/18 07:00:47;;;;;;;13.18;10.75;;;;;;;19.59;74.06;99218.92;1706025;83;21044;-65
2021/09/18 07:03:14;;;;;;;13.65;11.25;;;;;;;19.61;73.85;99219.53;1706289;81;21679;-64
2021/09/18 07:05:42;;;;;;;15.15;10.80;;;;;;;19.62;73.78;99221.70;1714176;83;21056;-65
2021/09/18 07:08:09;;;;;;;16.57;11.78;;;;;;;19.60;73.67;99219.23;1756596;80;21742;-64
2021/09/18 07:10:36;;;;;;;21.05;13.40;;;;;;;19.58;73.69;99219.11;1776190;80;22395;-64
2021/09/18 07:13:02;;;;;;;16.55;11.73;;;;;;;19.55;73.75;99219.50;1742161;80;21064;-67
2021/09/18 07:15:29;;;;;;;17.12;12.05;;;;;;;19.54;73.86;99218.69;1705991;83;21039;-64
2021/09/18 07:17:57;;;;;;;19.55;12.03;;;;;;;19.55;73.96;99218.16;1762353;80;21211;-65
2021/09/18 07:20:25;;;;;;;16.93;11.88;;;;;;;19.57;74.03;99222.82;1768171;80;21071;-65
2021/09/18 07:22:52;;;;;;;17.35;11.88;;;;;;;19.58;74.06;99219.11;1762886;80;21066;-64
2021/09/18 07:25:18;;;;;;;15.18;11.33;;;;;;;19.60;74.03;99233.14;1763349;80;21000;-64
2021/09/18 07:27:45;;;;;;;17.20;12.23;;;;;;;19.58;74.06;99229.83;1780899;80;21470;-65
2021/09/18 07:30:14;;;;;;;14.58;12.05;;;;;;;19.55;74.11;99223.00;1756739;80;20972;-65
2021/09/18 07:32:41;;;;;;;19.85;12.78;;;;;;;19.55;74.17;99223.52;1749734;82;21817;-65
2021/09/18 07:35:09;;;;;;;15.60;11.28;;;;;;;19.55;74.25;99228.88;1777010;80;21498;-64
2021/09/18 07:37:36;;;;;;;17.10;12.45;;;;;;;19.55;74.28;99224.86;1767495;80;21008;-64
2021/09/18 07:40:06;;;;;;;21.65;13.25;;;;;;;19.55;74.26;99224.34;1757412;80;21039;-64
2021/09/18 07:42:33;;;;;;;16.82;12.00;;;;;;;19.53;74.26;99229.09;1761656;80;21060;-65
2021/09/18 07:44:59;;;;;;;18.40;13.40;;;;;;;19.52;74.35;99226.11;1757753;80;22503;-64
2021/09/18 07:47:26;;;;;;;17.23;12.73;;;;;;;19.50;74.38;99222.00;1766907;80;21012;-64
2021/09/18 07:49:52;;;;;;;16.50;12.05;;;;;;;19.48;74.50;99236.09;1749910;80;21007;-64
2021/09/18 07:52:19;;;;;;;21.73;14.38;;;;;;;19.45;74.66;99230.64;1772748;80;20987;-64
2021/09/18 07:54:45;;;;;;;18.15;13.38;;;;;;;19.41;74.81;99224.88;1789375;80;21027;-64
2021/09/18 07:57:12;;;;;;;20.20;13.22;;;;;;;19.40;74.92;99221.90;1789472;80;22447;-65
2021/09/18 07:59:38;;;;;;;19.90;12.50;;;;;;;19.41;75.04;99226.73;1789634;80;21584;-65
2021/09/18 08:02:05;;;;;;;21.77;12.82;;;;;;;19.44;75.11;99220.96;1778361;80;21047;-65
2021/09/18 08:04:31;;;;;;;19.92;12.60;;;;;;;19.44;75.14;99222.30;1782059;80;20952;-63
2021/09/18 08:06:58;;;;;;;23.85;14.45;;;;;;;19.47;75.15;99227.75;1788762;80;20945;-67
2021/09/18 08:09:26;;;;;;;24.25;14.70;;;;;;;19.47;75.12;99223.73;1788341;80;22675;-65
2021/09/18 08:11:54;;;;;;;18.35;13.48;;;;;;;19.47;75.16;99219.72;1760503;80;21078;-65
2021/09/18 08:14:21;;;;;;;22.40;14.63;;;;;;;19.47;75.19;99227.75;1789021;80;20980;-65
2021/09/18 08:16:49;;;;;;;21.85;13.93;;;;;;;19.47;75.28;99223.73;1775381;80;20945;-65
2021/09/18 08:19:17;;;;;;;17.87;14.40;;;;;;;19.48;75.27;99220.02;1764222;80;21004;-66
2021/09/18 08:21:45;;;;;;;18.95;14.28;;;;;;;19.48;75.31;99214.66;1765344;80;21059;-67
2021/09/18 08:24:12;;;;;;;16.45;13.88;;;;;;;19.48;75.42;99211.47;1730378;80;21015;-67
2021/09/18 08:26:38;;;;;;;21.95;13.58;;;;;;;19.48;75.50;99212.80;1762565;80;21072;-66
2021/09/18 08:29:05;;;;;;;16.32;12.68;;;;;;;19.51;75.66;99219.62;1777536;80;21018;-65
2021/09/18 08:31:31;;;;;;;19.05;15.35;;;;;;;19.51;75.79;99214.27;1775031;80;21070;-66
2021/09/18 08:33:58;;;;;;;22.65;17.35;;;;;;;19.50;75.92;99219.32;1728841;82;21739;-66
2021/09/18 08:36:24;;;;;;;22.07;19.05;;;;;;;19.47;76.20;99209.00;1727660;82;21490;-66
2021/09/18 08:38:51;;;;;;;23.30;20.65;;;;;;;19.43;76.38;99209.94;1734791;81;21036;-66
2021/09/18 08:41:18;;;;;;;21.75;19.45;;;;;;;19.40;76.55;99205.02;1719300;82;22216;-65
2021/09/18 08:43:44;;;;;;;24.65;19.67;;;;;;;19.36;76.84;99196.55;1746723;81;21043;-65
2021/09/18 08:46:11;;;;;;;23.90;17.87;;;;;;;19.32;77.13;99210.57;1704162;83;21813;-67
2021/09/18 08:48:39;;;;;;;21.20;16.90;;;;;;;19.28;77.34;99214.16;1644759;83;21081;-67
2021/09/18 08:51:06;;;;;;;20.27;17.32;;;;;;;19.23;77.60;99213.97;1687052;83;21100;-66
2021/09/18 08:53:34;;;;;;;18.10;15.28;;;;;;;19.23;77.90;99209.95;1693967;83;21481;-67
2021/09/18 08:56:02;;;;;;;19.23;15.83;;;;;;;19.23;78.13;99208.61;1755053;80;21022;-66
2021/09/18 08:58:28;;;;;;;21.62;16.93;;;;;;;19.20;78.38;99199.63;1731226;82;21806;-67
2021/09/18 09:00:56;;;;;;;17.07;14.75;;;;;;;19.18;78.58;99200.87;1749335;80;20981;-66
2021/09/18 09:03:30;;;;;;;22.15;14.93;;;;;;;19.15;78.82;99198.11;1740284;80;21020;-67
2021/09/18 09:06:04;;;;;;;16.62;14.83;;;;;;;19.15;79.04;99200.27;1762860;80;21410;-67
2021/09/18 09:08:30;;;;;;;21.23;15.10;;;;;;;19.13;79.28;99192.97;1749833;80;21079;-66
2021/09/18 09:10:57;;;;;;;17.27;14.33;;;;;;;19.12;79.54;99196.67;1768565;80;21821;-66
2021/09/18 09:13:26;;;;;;;18.77;14.83;;;;;;;19.14;79.83;99193.27;1764317;79;21448;-65
2021/09/18 09:16:08;;;;;;;23.07;15.90;;;;;;;19.19;80.14;99196.66;1747903;80;21007;-66
2021/09/18 09:18:40;;;;;;;20.43;15.30;;;;;;;19.24;80.26;99192.86;1761615;80;20976;-66
2021/09/18 09:21:11;;;;;;;;;;;;;;;19.29;80.27;99192.22;1764632;80;20856;-67
2021/09/18 09:23:38;;;;;;;18.40;15.80;;;;;;;19.35;80.28;99197.58;1755900;80;21826;-66
2021/09/18 09:26:05;;;;;;;17.92;14.38;;;;;;;19.36;80.21;99192.53;1754254;80;21052;-66
2021/09/18 09:28:36;;;;;;;18.67;15.05;;;;;;;19.39;80.15;99196.64;1758859;80;21012;-65
2021/09/18 09:31:16;;;;;;;17.77;14.68;;;;;;;19.42;80.03;99190.89;1720495;82;21123;-65
2021/09/18 09:34:15;;;;;;;18.50;14.40;;;;;;;19.42;79.94;99193.05;1733313;80;21035;-66
2021/09/18 09:36:51;;;;;;;17.40;14.25;;;;;;;19.45;79.86;99193.14;1735559;82;21917;-65
2021/09/18 09:39:23;;;;;;;19.67;14.60;;;;;;;19.47;79.71;99190.25;1746486;80;21031;-65
2021/09/18 09:41:56;;;;;;;19.07;14.47;;;;;;;19.46;79.60;99189.44;1744945;82;21096;-65
2021/09/18 09:44:28;;;;;;;17.52;14.58;;;;;;;19.51;79.60;99186.15;1761376;80;20952;-66
2021/09/18 09:47:03;;;;;;;18.12;13.78;;;;;;;19.53;79.61;99192.11;1761685;80;20984;-65
2021/09/18 09:49:53;;;;;;;15.10;13.53;;;;;;;19.57;79.56;99189.34;1749253;80;21884;-66
2021/09/18 09:52:29;;;;;;;15.05;13.15;;;;;;;19.58;79.43;99193.14;1768162;80;21258;-66
2021/09/18 09:55:05;;;;;;;15.05;12.58;;;;;;;19.60;79.33;99193.78;1771138;80;21079;-69
2021/09/18 09:57:32;;;;;;;16.10;12.85;;;;;;;19.59;79.31;99186.79;1687350;82;21479;-65
2021/09/18 10:00:09;;;;;;;16.57;13.43;;;;;;;19.61;79.34;99195.95;1743023;80;20976;-67
2021/09/18 10:02:37;;;;;;;16.93;15.30;;;;;;;19.60;79.36;99193.78;1752614;80;21861;-65
2021/09/18 10:05:08;;;;;;;19.20;17.17;;;;;;;19.61;79.39;99190.59;1750255;80;21016;-65
2021/09/18 10:07:37;;;;;;;21.57;19.15;;;;;;;19.62;79.33;99194.39;1762928;80;21547;-65
2021/09/18 10:10:06;;;;;;;19.32;17.42;;;;;;;19.61;79.34;99194.61;1754412;81;21040;-66
2021/09/18 10:12:35;;;;;;;17.62;15.68;;;;;;;19.55;79.42;99192.20;1758768;80;21380;-66
2021/09/18 10:15:07;;;;;;;20.68;15.65;;;;;;;19.54;79.55;99194.58;1754646;80;21889;-66
2021/09/18 10:17:36;;;;;;;19.23;14.30;;;;;;;19.51;79.59;99189.64;1754411;80;21045;-66
2021/09/18 10:25:27;;;;;;;17.15;15.13;;;;;;;19.38;79.88;99175.73;1681109;84;21119;-65
2021/09/18 10:28:10;;;;;;;16.37;13.78;;;;;;;19.37;79.96;99172.75;1736672;80;21867;-66
2021/09/18 10:30:52;;;;;;;16.93;14.90;;;;;;;19.36;80.00;99173.79;1748823;80;21007;-66
2021/09/18 10:33:38;;;;;;;21.00;16.90;;;;;;;19.35;80.02;99171.33;1753253;79;21115;-67
2021/09/18 10:36:17;;;;;;;17.17;15.23;;;;;;;19.34;80.20;99181.73;1737844;80;21232;-66
2021/09/18 10:38:51;;;;;;;12.90;11.25;;;;;;;19.32;80.27;99187.30;1762577;80;21071;-67
2021/09/18 10:41:24;;;;;;;14.68;11.97;;;;;;;19.27;80.38;99183.58;1757278;80;21869;-67
2021/09/18 10:43:55;;;;;;;12.25;10.78;;;;;;;19.23;80.48;99189.05;1757506;80;21527;-67
2021/09/18 10:46:42;;;;;;;11.75;10.55;;;;;;;19.19;80.68;99187.28;1731125;80;20984;-67
2021/09/18 10:49:33;;;;;;;11.30;10.10;;;;;;;19.15;80.80;99189.56;1750466;79;20989;-67
2021/09/18 10:52:24;;;;;;;11.45;9.83;;;;;;;19.14;80.97;99195.13;1758750;80;21051;-66
2021/09/18 10:57:49;;;;;;;9.70;8.70;;;;;;;19.10;81.26;99200.56;1760311;80;21533;-66
2021/09/18 11:00:26;;;;;;;10.15;8.65;;;;;;;19.08;81.40;99198.61;1753349;80;21542;-66
2021/09/18 11:03:00;;;;;;;11.85;7.50;;;;;;;19.05;81.54;99187.81;1765388;80;21774;-65
2021/09/18 11:05:35;;;;;;;7.50;5.85;;;;;;;19.04;81.72;99192.86;1753205;80;21045;-66
2021/09/18 11:08:19;;;;;;;9.58;6.70;;;;;;;19.01;81.81;99187.92;1774334;80;39935;-68
2021/09/18 11:10:56;;;;;;;8.75;6.03;;;;;;;18.99;81.93;99194.48;1762515;80;21020;-67
2021/09/18 11:13:28;;;;;;;6.60;4.35;;;;;;;18.97;82.12;99211.27;1753584;80;21624;-66
2021/09/18 11:16:04;;;;;;;5.72;4.45;;;;;;;18.91;82.13;99203.53;1765656;80;21020;-66
2021/09/18 11:18:39;;;;;;;7.75;4.50;;;;;;;18.86;81.99;99200.14;1742150;80;21047;-66
2021/09/18 11:21:14;;;;;;;6.60;4.53;;;;;;;18.81;81.60;99199.09;1736299;80;21060;-66
2021/09/18 11:24:03;;;;;;;6.92;4.62;;;;;;;18.76;81.44;99195.70;1751703;80;21036;-68
2021/09/18 11:26:40;;;;;;;5.37;4.20;;;;;;;18.74;81.26;99203.63;1779902;80;21071;-66
2021/09/18 11:29:23;;;;;;;5.47;4.53;;;;;;;18.69;81.11;99212.76;1732958;80;21021;-65
2021/09/18 11:32:15;;;;;;;4.92;3.50;;;;;;;18.65;80.99;99215.54;1764554;79;21034;-65
2021/09/18 11:34:53;;;;;;;8.15;4.78;;;;;;;18.60;80.85;99220.93;1759059;80;21830;-65
2021/09/18 11:37:33;;;;;;;5.53;4.85;;;;;;;18.56;80.87;99222.89;1762302;80;21597;-67
2021/09/18 11:40:10;;;;;;;8.75;4.92;;;;;;;18.55;80.95;99223.91;1744348;80;21036;-66
2021/09/18 11:42:42;;;;;;;6.12;4.40;;;;;;;18.49;80.93;99216.17;1725864;82;21078;-65